KANW/ANW METAR and TAF weather

Enter ICAO airport designator
Station Type Date Time Source
KANW METAR 2021/05/11 01:55 UTC NOAA

KANW 110155Z AUTO 06006KT 10SM CLR 08/M02 A3022 RMK AO2 T00811023


Station Type Date Time Source
KANW Decoded METAR 2021/05/11 01:55 UTC NOAA

Ainsworth Municipal, NE, United States (KANW) 42-35N 100-00W
May 10, 2021 - 09:55 PM EDT / 2021.05.11 0155 UTC
Wind: from the ENE (060 degrees) at 7 MPH (6 KT):0
Visibility: 10 mile(s):0
Sky conditions: clear
Temperature: 46.6 F (8.1 C)
Dew Point: 27.9 F (-2.3 C)
Relative Humidity: 47%
Pressure (altimeter): 30.22 in. Hg (1023 hPa)
ob: KANW 110155Z AUTO 06006KT 10SM CLR 08/M02 A3022 RMK AO2 T00811023
cycle: 2

Station Type Date Time Source
KANW TAF UTC NOAA

Error!

Example: see airport list